createdAt,value
2022-07-29T00:00:09.970Z,15.12
2022-07-29T00:02:55.205Z,14.97
2022-07-29T00:05:42.661Z,15.05
2022-07-29T00:08:27.840Z,14.99
2022-07-29T00:11:13.152Z,14.91
2022-07-29T00:13:58.396Z,14.90
2022-07-29T00:16:43.821Z,14.84
2022-07-29T00:19:29.080Z,14.77
2022-07-29T00:22:14.350Z,14.56
2022-07-29T00:24:59.838Z,14.68
2022-07-29T00:27:46.742Z,14.62
2022-07-29T00:30:31.967Z,14.54
2022-07-29T00:33:17.164Z,14.42
2022-07-29T00:36:02.116Z,14.41
2022-07-29T00:38:51.911Z,14.36
2022-07-29T00:41:36.833Z,14.27
2022-07-29T00:44:22.216Z,14.23
2022-07-29T00:47:08.360Z,14.14
2022-07-29T00:49:53.612Z,14.22
2022-07-29T00:52:42.177Z,14.19
2022-07-29T00:55:27.786Z,14.17
2022-07-29T00:58:14.857Z,14.19
2022-07-29T01:01:01.348Z,14.07
2022-07-29T01:03:46.497Z,14.12
2022-07-29T01:06:31.496Z,14.10
2022-07-29T01:09:18.552Z,14.06
2022-07-29T01:12:25.290Z,14.09
2022-07-29T01:15:10.874Z,14.01
2022-07-29T01:18:08.116Z,13.92
2022-07-29T01:21:14.650Z,13.93
2022-07-29T01:24:28.540Z,13.87
2022-07-29T01:27:34.331Z,13.83
2022-07-29T01:30:19.835Z,13.75
2022-07-29T01:33:32.423Z,13.70
2022-07-29T01:36:24.892Z,13.67
2022-07-29T01:39:17.982Z,13.63
2022-07-29T01:42:08.831Z,13.58
2022-07-29T01:45:17.827Z,13.54
2022-07-29T01:48:22.832Z,13.42
2022-07-29T01:51:07.654Z,13.27
2022-07-29T01:54:15.412Z,13.29
2022-07-29T01:57:02.584Z,13.10
2022-07-29T01:59:49.541Z,13.15
2022-07-29T02:02:37.042Z,13.24
2022-07-29T02:05:25.085Z,13.28
2022-07-29T02:08:12.315Z,13.29
2022-07-29T02:11:00.495Z,13.23
2022-07-29T02:13:46.457Z,13.20
2022-07-29T02:16:34.564Z,13.16
2022-07-29T02:19:24.336Z,13.13
2022-07-29T02:22:12.043Z,12.95
2022-07-29T02:24:59.294Z,12.97
2022-07-29T02:27:48.235Z,12.97
2022-07-29T02:30:36.572Z,12.94
2022-07-29T02:33:24.209Z,12.94
2022-07-29T02:36:10.193Z,12.92
2022-07-29T02:38:58.684Z,12.83
2022-07-29T02:41:51.098Z,12.92
2022-07-29T02:44:36.938Z,12.90
2022-07-29T02:47:24.986Z,12.78
2022-07-29T02:50:33.601Z,12.79
2022-07-29T02:53:27.554Z,12.86
2022-07-29T02:56:17.429Z,12.81
2022-07-29T02:59:04.286Z,12.74
2022-07-29T03:01:50.693Z,12.71
2022-07-29T03:04:38.255Z,12.70
2022-07-29T03:07:24.335Z,12.65
2022-07-29T03:10:13.746Z,12.64
2022-07-29T03:13:00.182Z,12.56
2022-07-29T03:15:46.300Z,12.59
2022-07-29T03:18:32.638Z,12.59
2022-07-29T03:21:18.067Z,12.60
2022-07-29T03:24:06.868Z,12.56
2022-07-29T03:26:57.163Z,12.52
2022-07-29T03:29:43.720Z,12.48
2022-07-29T03:32:36.306Z,12.51
2022-07-29T03:35:21.446Z,12.46
2022-07-29T03:38:06.611Z,12.38
2022-07-29T03:41:01.683Z,12.30
2022-07-29T03:43:49.107Z,12.20
2022-07-29T03:46:36.515Z,12.27
2022-07-29T03:49:24.205Z,12.34
2022-07-29T03:52:09.913Z,12.23
2022-07-29T03:54:55.130Z,12.22
2022-07-29T03:57:41.404Z,12.22
2022-07-29T04:00:27.852Z,12.17
2022-07-29T04:03:14.131Z,12.21
2022-07-29T04:06:07.677Z,12.22
2022-07-29T04:08:52.687Z,12.07
2022-07-29T04:12:01.877Z,12.16
2022-07-29T04:14:45.962Z,12.11
2022-07-29T04:17:31.381Z,12.08
2022-07-29T04:20:16.680Z,11.93
2022-07-29T04:23:02.167Z,12.04
2022-07-29T04:25:47.438Z,11.85
2022-07-29T04:28:32.941Z,12.01
2022-07-29T04:31:22.426Z,12.00
2022-07-29T04:34:11.224Z,11.89
2022-07-29T04:36:56.874Z,11.96
2022-07-29T04:39:41.942Z,11.95
2022-07-29T04:42:27.734Z,11.93
2022-07-29T04:45:15.033Z,11.91
2022-07-29T04:48:01.436Z,11.89
2022-07-29T04:50:46.543Z,11.91
2022-07-29T04:53:31.981Z,11.90
2022-07-29T04:56:17.160Z,11.94
2022-07-29T04:59:02.518Z,11.96
2022-07-29T05:01:47.814Z,11.89
2022-07-29T05:04:32.887Z,11.78
2022-07-29T05:07:17.844Z,11.91
2022-07-29T05:10:04.304Z,11.96
2022-07-29T05:12:49.532Z,12.00
2022-07-29T05:15:35.762Z,12.04
2022-07-29T05:18:20.854Z,12.03
2022-07-29T05:21:11.284Z,12.13
2022-07-29T05:23:56.533Z,12.20
2022-07-29T05:26:41.910Z,12.26
2022-07-29T05:29:43.907Z,12.39
2022-07-29T05:32:30.755Z,12.49
2022-07-29T05:35:16.584Z,12.68
2022-07-29T05:38:01.954Z,12.78
2022-07-29T05:40:47.092Z,13.00
2022-07-29T05:43:32.742Z,13.09
2022-07-29T05:46:17.980Z,13.29
2022-07-29T05:49:03.863Z,13.41
2022-07-29T05:51:50.273Z,13.58
2022-07-29T05:54:35.902Z,13.77
2022-07-29T05:57:24.331Z,13.87
2022-07-29T06:00:10.376Z,14.02
2022-07-29T06:02:55.370Z,14.33
2022-07-29T06:05:40.901Z,14.49
2022-07-29T06:08:26.089Z,14.64
2022-07-29T06:11:11.405Z,14.80
2022-07-29T06:13:56.808Z,14.94
2022-07-29T06:16:42.394Z,15.13
2022-07-29T06:19:27.771Z,15.26
2022-07-29T06:22:12.881Z,15.17
2022-07-29T06:24:58.148Z,15.35
2022-07-29T06:27:43.390Z,15.39
2022-07-29T06:30:29.669Z,15.60
2022-07-29T06:33:19.801Z,15.65
2022-07-29T06:36:06.664Z,15.74
2022-07-29T06:38:52.320Z,15.90
2022-07-29T06:41:39.190Z,16.04
2022-07-29T06:44:24.379Z,16.21
2022-07-29T06:47:09.565Z,16.31
2022-07-29T06:49:54.863Z,16.33
2022-07-29T06:52:40.052Z,16.45
2022-07-29T06:55:25.589Z,16.37
2022-07-29T06:58:11.760Z,16.76
2022-07-29T07:00:57.816Z,16.92
2022-07-29T07:03:43.154Z,16.96
2022-07-29T07:06:28.523Z,17.01
2022-07-29T07:09:13.782Z,17.09
2022-07-29T07:11:59.041Z,17.22
2022-07-29T07:14:44.337Z,17.33
2022-07-29T07:17:29.638Z,17.36
2022-07-29T07:20:14.846Z,17.52
2022-07-29T07:23:00.071Z,17.67
2022-07-29T07:25:45.364Z,17.88
2022-07-29T07:28:30.571Z,18.27
2022-07-29T07:31:15.887Z,18.48
2022-07-29T07:34:01.283Z,18.77
2022-07-29T07:36:46.636Z,18.86
2022-07-29T07:39:31.978Z,18.97
2022-07-29T07:42:17.391Z,19.00
2022-07-29T07:45:13.719Z,19.06
2022-07-29T07:47:59.426Z,19.04
2022-07-29T07:50:44.765Z,19.10
2022-07-29T07:53:30.714Z,19.18
2022-07-29T07:56:16.491Z,19.25
2022-07-29T07:59:01.447Z,19.31
2022-07-29T08:01:50.481Z,19.33
2022-07-29T08:04:41.922Z,19.39
2022-07-29T08:07:27.127Z,19.39
2022-07-29T08:10:13.088Z,19.54
2022-07-29T08:12:58.469Z,19.63
2022-07-29T08:15:45.820Z,19.81
2022-07-29T08:18:32.093Z,19.81
2022-07-29T08:21:18.563Z,20.02
2022-07-29T08:24:22.770Z,20.05
2022-07-29T08:27:26.937Z,20.11
2022-07-29T08:30:13.105Z,20.35
2022-07-29T08:32:58.393Z,20.36
2022-07-29T08:35:43.450Z,20.43
2022-07-29T08:38:28.789Z,20.53
2022-07-29T08:41:14.070Z,20.58
2022-07-29T08:43:59.383Z,20.67
2022-07-29T08:46:44.904Z,20.74
2022-07-29T08:49:30.036Z,20.82
2022-07-29T08:52:16.997Z,20.86
2022-07-29T08:55:02.951Z,21.06
2022-07-29T08:57:51.961Z,21.13
2022-07-29T09:00:46.559Z,21.18
2022-07-29T09:03:36.893Z,21.25
2022-07-29T09:06:23.021Z,21.37
2022-07-29T09:09:09.148Z,21.40
2022-07-29T09:11:54.537Z,21.45
2022-07-29T09:14:40.340Z,21.51
2022-07-29T09:17:56.281Z,21.55
2022-07-29T09:21:11.773Z,21.58
2022-07-29T09:24:10.191Z,21.72
2022-07-29T09:26:55.823Z,21.82
2022-07-29T09:29:41.224Z,21.93
2022-07-29T09:32:27.424Z,21.92
2022-07-29T09:35:21.540Z,22.10
2022-07-29T09:38:15.998Z,22.29
2022-07-29T09:41:06.136Z,22.32
2022-07-29T09:43:59.635Z,22.41
2022-07-29T09:47:07.072Z,22.51
2022-07-29T09:49:54.333Z,22.56
2022-07-29T09:52:50.226Z,22.55
2022-07-29T09:55:50.697Z,22.80
2022-07-29T09:58:37.123Z,22.90
2022-07-29T10:01:29.691Z,22.89
2022-07-29T10:04:15.377Z,22.96
2022-07-29T10:07:05.371Z,23.07
2022-07-29T10:09:55.673Z,23.31
2022-07-29T10:13:07.243Z,23.44
2022-07-29T10:15:55.253Z,23.38
2022-07-29T10:18:41.155Z,23.56
2022-07-29T10:21:36.179Z,23.77
2022-07-29T10:24:22.349Z,23.76
2022-07-29T10:27:09.526Z,23.85
2022-07-29T10:29:55.356Z,23.96
2022-07-29T10:33:07.705Z,24.08
2022-07-29T10:35:55.905Z,24.20
2022-07-29T10:38:53.333Z,24.35
2022-07-29T10:42:08.171Z,24.36
2022-07-29T10:44:55.170Z,24.38
2022-07-29T10:47:40.506Z,24.41
2022-07-29T10:50:25.684Z,24.79
2022-07-29T10:53:11.995Z,25.01
2022-07-29T10:55:59.548Z,25.15
2022-07-29T10:58:49.959Z,25.25
2022-07-29T11:01:39.045Z,25.41
2022-07-29T11:04:47.180Z,25.63
2022-07-29T11:07:45.932Z,25.69
2022-07-29T11:10:31.979Z,25.83
2022-07-29T11:13:47.247Z,25.91
2022-07-29T11:17:03.590Z,26.02
2022-07-29T11:19:52.623Z,25.93
2022-07-29T11:22:43.149Z,26.25
2022-07-29T11:25:42.510Z,26.41
2022-07-29T11:28:40.633Z,26.65
2022-07-29T11:31:42.303Z,26.79
2022-07-29T11:34:36.523Z,26.75
2022-07-29T11:40:28.111Z,26.92
2022-07-29T11:43:52.437Z,27.03
2022-07-29T11:46:51.919Z,27.34
2022-07-29T11:49:48.161Z,27.49
2022-07-29T11:52:38.391Z,27.19
2022-07-29T11:55:37.987Z,26.40
2022-07-29T11:58:38.280Z,26.61
2022-07-29T12:01:25.518Z,26.97
2022-07-29T12:04:13.777Z,26.98
2022-07-29T12:07:00.495Z,27.11
2022-07-29T12:09:53.577Z,27.43
2022-07-29T12:12:42.474Z,27.55
2022-07-29T12:15:39.486Z,27.60
2022-07-29T12:18:32.135Z,27.81
2022-07-29T12:21:17.346Z,27.86
2022-07-29T12:24:08.973Z,27.97
2022-07-29T12:26:59.860Z,28.03
2022-07-29T12:29:55.766Z,28.36
2022-07-29T12:32:46.849Z,28.33
2022-07-29T12:35:32.969Z,28.22
2022-07-29T12:38:18.769Z,28.35
2022-07-29T12:41:04.945Z,28.53
2022-07-29T12:43:54.979Z,28.54
2022-07-29T12:46:40.270Z,28.65
2022-07-29T12:49:25.383Z,28.66
2022-07-29T12:52:34.408Z,29.02
2022-07-29T12:55:42.505Z,29.30
2022-07-29T12:58:31.790Z,29.38
2022-07-29T13:01:19.036Z,29.43
2022-07-29T13:04:05.318Z,29.34
2022-07-29T13:07:10.321Z,29.51
2022-07-29T13:10:20.428Z,29.38
2022-07-29T13:13:14.292Z,29.50
2022-07-29T13:16:09.086Z,29.45
2022-07-29T13:19:11.011Z,29.43
2022-07-29T13:21:56.129Z,28.83
2022-07-29T13:24:59.394Z,28.64
2022-07-29T13:27:46.714Z,28.89
2022-07-29T13:30:32.080Z,28.61
2022-07-29T13:33:17.305Z,28.26
2022-07-29T13:36:02.476Z,28.43
2022-07-29T13:38:47.482Z,28.94
2022-07-29T13:41:32.736Z,29.31
2022-07-29T13:44:18.163Z,29.58
2022-07-29T13:47:03.595Z,29.76
2022-07-29T13:49:49.227Z,29.73
2022-07-29T13:52:34.995Z,29.83
2022-07-29T13:55:20.589Z,30.06
2022-07-29T13:58:05.698Z,30.29
2022-07-29T14:00:51.125Z,30.29
2022-07-29T14:03:39.180Z,30.31
2022-07-29T14:06:25.192Z,30.20
2022-07-29T14:09:10.870Z,30.02
2022-07-29T14:11:56.471Z,29.75
2022-07-29T14:14:42.452Z,29.37
2022-07-29T14:17:28.207Z,29.36
2022-07-29T14:20:13.490Z,29.44
2022-07-29T14:22:58.846Z,29.85
2022-07-29T14:25:44.560Z,29.95
2022-07-29T14:28:30.451Z,30.83
2022-07-29T14:31:16.098Z,31.04
2022-07-29T14:34:03.015Z,31.03
2022-07-29T14:36:48.553Z,31.29
2022-07-29T14:39:36.123Z,31.47
2022-07-29T14:42:24.234Z,31.69
2022-07-29T14:45:10.831Z,31.76
2022-07-29T14:47:56.373Z,31.76
2022-07-29T14:50:42.724Z,31.72
2022-07-29T14:53:28.072Z,31.49
2022-07-29T14:56:35.366Z,31.80
2022-07-29T14:59:18.547Z,32.24
2022-07-29T15:02:04.268Z,31.85
2022-07-29T15:04:49.637Z,31.74
2022-07-29T15:07:35.029Z,31.13
2022-07-29T15:10:20.736Z,30.65
2022-07-29T15:13:06.209Z,30.55
2022-07-29T15:15:51.692Z,30.17
2022-07-29T15:18:39.134Z,29.82
2022-07-29T15:21:24.695Z,29.63
2022-07-29T15:24:10.059Z,29.58
2022-07-29T15:26:55.310Z,29.32
2022-07-29T15:29:42.498Z,29.18
2022-07-29T15:32:27.447Z,28.89
2022-07-29T15:35:12.794Z,29.53
2022-07-29T15:37:58.609Z,29.92
2022-07-29T15:40:44.549Z,29.46
2022-07-29T15:43:29.815Z,29.08
2022-07-29T15:46:34.591Z,28.64
2022-07-29T15:49:19.743Z,28.35
2022-07-29T15:52:10.027Z,28.46
2022-07-29T15:54:58.169Z,28.50
2022-07-29T15:57:43.485Z,28.41
2022-07-29T16:00:28.545Z,28.26
2022-07-29T16:03:14.800Z,28.19
2022-07-29T16:05:59.726Z,28.11
2022-07-29T16:08:45.079Z,28.11
2022-07-29T16:11:30.434Z,28.10
2022-07-29T16:14:15.754Z,27.99
2022-07-29T16:17:03.726Z,27.87
2022-07-29T16:19:48.979Z,27.58
2022-07-29T16:22:34.481Z,27.52
2022-07-29T16:25:19.552Z,27.47
2022-07-29T16:28:05.379Z,27.35
2022-07-29T16:30:51.243Z,27.11
2022-07-29T16:33:54.205Z,27.09
2022-07-29T16:36:44.698Z,27.08
2022-07-29T16:39:32.942Z,27.08
2022-07-29T16:42:36.991Z,27.16
2022-07-29T16:45:23.733Z,27.04
2022-07-29T16:48:08.865Z,26.78
2022-07-29T16:50:56.123Z,26.54
2022-07-29T16:53:41.112Z,26.61
2022-07-29T16:56:26.326Z,26.38
2022-07-29T16:59:11.876Z,26.40
2022-07-29T17:01:56.988Z,26.44
2022-07-29T17:04:42.449Z,26.28
2022-07-29T17:07:27.660Z,26.12
2022-07-29T17:10:13.091Z,25.86
2022-07-29T17:12:58.234Z,25.72
2022-07-29T17:15:44.081Z,25.62
2022-07-29T17:18:29.412Z,25.60
2022-07-29T17:21:14.638Z,25.57
2022-07-29T17:24:00.070Z,25.56
2022-07-29T17:26:45.497Z,25.45
2022-07-29T17:29:30.566Z,25.33
2022-07-29T17:32:15.931Z,25.37
2022-07-29T17:35:01.129Z,25.37
2022-07-29T17:37:46.660Z,25.27
2022-07-29T17:40:31.813Z,25.20
2022-07-29T17:43:17.206Z,25.08
2022-07-29T17:46:02.493Z,25.11
2022-07-29T17:48:48.302Z,25.11
2022-07-29T17:51:33.698Z,25.12
2022-07-29T17:54:18.830Z,25.05
2022-07-29T17:57:04.244Z,24.99
2022-07-29T17:59:49.474Z,24.89
2022-07-29T18:02:37.393Z,24.87
2022-07-29T18:05:23.036Z,24.84
2022-07-29T18:08:08.510Z,24.76
2022-07-29T18:10:53.718Z,24.71
2022-07-29T18:13:39.198Z,24.60
2022-07-29T18:16:24.807Z,24.46
2022-07-29T18:19:10.061Z,24.36
2022-07-29T18:21:57.323Z,24.44
2022-07-29T18:24:44.710Z,24.38
2022-07-29T18:27:29.964Z,24.35
2022-07-29T18:30:15.384Z,24.37
2022-07-29T18:33:20.234Z,24.32
2022-07-29T18:36:11.678Z,24.18
2022-07-29T18:38:56.752Z,24.04
2022-07-29T18:41:50.311Z,24.01
2022-07-29T18:44:43.528Z,23.93
2022-07-29T18:47:32.122Z,23.97
2022-07-29T18:50:19.257Z,23.82
2022-07-29T18:53:04.605Z,23.66
2022-07-29T18:55:49.894Z,23.65
2022-07-29T18:58:36.994Z,23.38
2022-07-29T19:01:22.197Z,23.46
2022-07-29T19:04:07.378Z,23.38
2022-07-29T19:06:52.578Z,23.29
2022-07-29T19:09:37.954Z,23.25
2022-07-29T19:12:34.913Z,23.21
2022-07-29T19:15:20.706Z,23.13
2022-07-29T19:18:05.830Z,23.00
2022-07-29T19:20:51.088Z,22.97
2022-07-29T19:24:06.043Z,22.93
2022-07-29T19:26:46.747Z,22.81
2022-07-29T19:29:32.916Z,22.79
2022-07-29T19:32:25.008Z,22.67
2022-07-29T19:35:28.366Z,22.46
2022-07-29T19:38:14.224Z,22.42
2022-07-29T19:40:59.600Z,22.33
2022-07-29T19:43:52.030Z,22.26
2022-07-29T19:46:38.083Z,22.19
2022-07-29T19:49:23.564Z,22.07
2022-07-29T19:52:08.796Z,21.96
2022-07-29T19:54:53.939Z,21.87
2022-07-29T19:57:41.013Z,21.75
2022-07-29T20:00:27.363Z,21.77
2022-07-29T20:03:13.378Z,21.72
2022-07-29T20:05:59.984Z,21.67
2022-07-29T20:08:45.356Z,21.53
2022-07-29T20:11:30.453Z,21.50
2022-07-29T20:14:15.831Z,21.45
2022-07-29T20:17:01.321Z,21.36
2022-07-29T20:19:46.767Z,21.30
2022-07-29T20:22:32.170Z,21.28
2022-07-29T20:25:17.522Z,21.12
2022-07-29T20:28:02.827Z,21.10
2022-07-29T20:30:48.326Z,20.93
2022-07-29T20:33:34.767Z,21.05
2022-07-29T20:36:20.034Z,20.94
2022-07-29T20:39:05.471Z,20.89
2022-07-29T20:41:50.726Z,20.85
2022-07-29T20:44:36.773Z,20.62
2022-07-29T20:47:22.373Z,20.75
2022-07-29T20:50:09.848Z,20.74
2022-07-29T20:52:54.918Z,20.65
2022-07-29T20:55:40.325Z,20.66
2022-07-29T20:58:26.808Z,20.66
2022-07-29T21:01:12.073Z,20.59
2022-07-29T21:03:57.232Z,20.44
2022-07-29T21:06:42.552Z,20.40
2022-07-29T21:09:28.391Z,20.31
2022-07-29T21:12:14.173Z,20.23
2022-07-29T21:14:59.502Z,20.00
2022-07-29T21:17:47.670Z,19.99
2022-07-29T21:20:32.608Z,19.79
2022-07-29T21:23:17.845Z,19.73
2022-07-29T21:26:03.486Z,19.60
2022-07-29T21:28:50.591Z,19.64
2022-07-29T21:31:36.147Z,19.50
2022-07-29T21:34:21.265Z,19.28
2022-07-29T21:37:06.559Z,19.52
2022-07-29T21:39:53.440Z,19.55
2022-07-29T21:42:38.727Z,19.56
2022-07-29T21:45:24.070Z,19.57
2022-07-29T21:48:09.771Z,19.57
2022-07-29T21:50:55.196Z,19.51
2022-07-29T21:53:40.369Z,19.56
2022-07-29T21:56:27.890Z,19.49
2022-07-29T21:59:13.307Z,19.20
2022-07-29T22:02:00.899Z,19.31
2022-07-29T22:04:46.341Z,19.23
2022-07-29T22:07:54.598Z,19.25
2022-07-29T22:10:37.526Z,19.14
2022-07-29T22:13:22.742Z,18.93
2022-07-29T22:16:10.138Z,18.89
2022-07-29T22:18:55.324Z,18.98
2022-07-29T22:21:41.330Z,18.95
2022-07-29T22:24:26.642Z,19.03
2022-07-29T22:27:12.566Z,19.04
2022-07-29T22:29:57.826Z,19.04
2022-07-29T22:32:43.414Z,18.99
2022-07-29T22:35:28.455Z,18.96
2022-07-29T22:38:14.100Z,18.83
2022-07-29T22:41:01.371Z,18.88
2022-07-29T22:43:46.843Z,18.84
2022-07-29T22:46:33.868Z,18.83
2022-07-29T22:49:19.011Z,18.71
2022-07-29T22:52:04.471Z,18.83
2022-07-29T22:54:50.165Z,18.81
2022-07-29T22:57:35.574Z,18.77
2022-07-29T23:00:20.837Z,18.75
2022-07-29T23:03:06.079Z,18.70
2022-07-29T23:05:51.931Z,18.67
2022-07-29T23:08:36.897Z,18.55
2022-07-29T23:11:22.235Z,18.42
2022-07-29T23:14:07.513Z,18.18
2022-07-29T23:16:55.010Z,18.13
2022-07-29T23:19:40.165Z,18.08
2022-07-29T23:22:25.433Z,18.07
2022-07-29T23:25:10.795Z,18.03
2022-07-29T23:27:56.059Z,17.96
2022-07-29T23:30:42.074Z,17.93
2022-07-29T23:33:27.230Z,17.84
2022-07-29T23:36:12.493Z,17.75
2022-07-29T23:38:57.810Z,17.74
2022-07-29T23:41:43.017Z,17.74
2022-07-29T23:44:28.544Z,17.73
2022-07-29T23:47:13.812Z,17.71
2022-07-29T23:49:59.626Z,17.68
2022-07-29T23:52:45.183Z,17.61
2022-07-29T23:55:37.132Z,17.48
2022-07-29T23:58:24.254Z,17.51
